createdAt,value
2018-08-09T00:01:46.886Z,22.82
2018-08-09T00:04:13.252Z,22.78
2018-08-09T00:06:39.600Z,22.80
2018-08-09T00:09:05.925Z,22.79
2018-08-09T00:11:32.270Z,22.76
2018-08-09T00:13:58.649Z,22.78
2018-08-09T00:16:24.987Z,22.82
2018-08-09T00:18:51.363Z,22.75
2018-08-09T00:21:17.729Z,22.77
2018-08-09T00:23:44.087Z,22.77
2018-08-09T00:26:10.475Z,22.72
2018-08-09T00:28:36.843Z,22.77
2018-08-09T00:31:03.204Z,22.81
2018-08-09T00:33:29.571Z,22.78
2018-08-09T00:35:55.892Z,22.73
2018-08-09T00:38:22.264Z,22.76
2018-08-09T00:40:48.592Z,22.78
2018-08-09T00:43:15.051Z,22.77
2018-08-09T00:45:41.414Z,22.76
2018-08-09T00:48:07.766Z,22.77
2018-08-09T00:50:34.098Z,22.73
2018-08-09T00:53:00.415Z,22.75
2018-08-09T00:55:26.785Z,22.72
2018-08-09T00:57:53.113Z,22.76
2018-08-09T01:00:19.478Z,22.72
2018-08-09T01:02:45.815Z,22.70
2018-08-09T01:05:12.203Z,22.73
2018-08-09T01:07:38.830Z,22.71
2018-08-09T01:10:05.219Z,22.75
2018-08-09T01:12:31.549Z,22.67
2018-08-09T01:14:57.896Z,22.72
2018-08-09T01:17:24.246Z,22.68
2018-08-09T01:19:50.741Z,22.69
2018-08-09T01:22:17.085Z,22.68
2018-08-09T01:24:43.427Z,22.70
2018-08-09T01:27:09.803Z,22.68
2018-08-09T01:29:36.202Z,22.67
2018-08-09T01:32:02.572Z,22.69
2018-08-09T01:34:28.936Z,22.70
2018-08-09T01:36:55.337Z,22.68
2018-08-09T01:39:21.765Z,22.66
2018-08-09T01:41:48.249Z,22.66
2018-08-09T01:44:14.586Z,22.68
2018-08-09T01:46:40.943Z,22.66
2018-08-09T01:49:07.321Z,22.66
2018-08-09T01:51:33.723Z,22.65
2018-08-09T01:54:00.085Z,22.66
2018-08-09T01:56:26.441Z,22.64
2018-08-09T01:58:53.702Z,22.64
2018-08-09T02:01:20.030Z,22.64
2018-08-09T02:03:46.371Z,22.62
2018-08-09T02:06:12.741Z,22.62
2018-08-09T02:08:39.090Z,22.65
2018-08-09T02:11:05.505Z,22.66
2018-08-09T02:13:31.868Z,22.60
2018-08-09T02:15:58.257Z,22.61
2018-08-09T02:18:24.708Z,22.62
2018-08-09T02:20:51.121Z,22.62
2018-08-09T02:23:17.449Z,22.61
2018-08-09T02:25:43.818Z,22.63
2018-08-09T02:28:10.133Z,22.61
2018-08-09T02:30:36.505Z,22.60
2018-08-09T02:33:02.907Z,22.63
2018-08-09T02:35:29.357Z,22.62
2018-08-09T02:37:55.676Z,22.58
2018-08-09T02:40:22.024Z,22.60
2018-08-09T02:42:48.421Z,22.60
2018-08-09T02:45:14.844Z,22.61
2018-08-09T02:47:41.229Z,22.58
2018-08-09T02:50:07.558Z,22.60
2018-08-09T02:52:33.935Z,22.56
2018-08-09T02:55:00.304Z,22.55
2018-08-09T02:57:26.818Z,22.57
2018-08-09T02:59:53.160Z,22.55
2018-08-09T03:02:19.521Z,22.55
2018-08-09T03:04:45.859Z,22.53
2018-08-09T03:07:12.219Z,22.54
2018-08-09T03:09:38.552Z,22.57
2018-08-09T03:12:04.885Z,22.53
2018-08-09T03:14:31.240Z,22.53
2018-08-09T03:16:57.700Z,22.53
2018-08-09T03:19:24.080Z,22.56
2018-08-09T03:21:50.401Z,22.53
2018-08-09T03:24:16.739Z,22.54
2018-08-09T03:26:43.095Z,22.54
2018-08-09T03:29:09.442Z,22.62
2018-08-09T03:31:35.813Z,22.65
2018-08-09T03:34:02.163Z,22.69
2018-08-09T03:36:28.507Z,22.71
2018-08-09T03:38:54.863Z,22.76
2018-08-09T03:41:21.217Z,22.81
2018-08-09T03:43:47.556Z,22.85
2018-08-09T03:46:13.879Z,22.87
2018-08-09T03:48:40.210Z,22.88
2018-08-09T03:51:06.527Z,22.95
2018-08-09T03:53:32.852Z,22.96
2018-08-09T03:55:59.232Z,23.01
2018-08-09T03:58:25.601Z,23.03
2018-08-09T04:00:51.989Z,23.07
2018-08-09T04:03:18.343Z,23.08
2018-08-09T04:05:44.833Z,23.07
2018-08-09T04:08:11.213Z,23.14
2018-08-09T04:10:37.548Z,23.16
2018-08-09T04:13:03.935Z,23.18
2018-08-09T04:15:30.281Z,23.25
2018-08-09T04:17:56.693Z,23.25
2018-08-09T04:20:23.083Z,23.32
2018-08-09T04:22:49.446Z,23.37
2018-08-09T04:25:15.770Z,23.30
2018-08-09T04:27:42.139Z,23.34
2018-08-09T04:30:08.528Z,23.42
2018-08-09T04:32:34.877Z,23.45
2018-08-09T04:35:01.207Z,23.51
2018-08-09T04:37:27.588Z,23.51
2018-08-09T04:39:54.052Z,23.42
2018-08-09T04:42:20.381Z,23.45
2018-08-09T04:44:46.720Z,23.42
2018-08-09T04:47:13.111Z,23.40
2018-08-09T04:49:39.498Z,23.46
2018-08-09T04:52:05.997Z,23.49
2018-08-09T04:54:32.339Z,23.49
2018-08-09T04:56:58.735Z,23.50
2018-08-09T04:59:25.221Z,23.57
2018-08-09T05:01:51.584Z,23.53
2018-08-09T05:04:17.955Z,23.57
2018-08-09T05:06:44.297Z,23.55
2018-08-09T05:09:10.674Z,23.56
2018-08-09T05:11:37.044Z,23.58
2018-08-09T05:14:03.479Z,23.62
2018-08-09T05:16:29.844Z,23.61
2018-08-09T05:18:56.173Z,23.64
2018-08-09T05:21:22.504Z,23.61
2018-08-09T05:23:48.862Z,23.61
2018-08-09T05:26:15.232Z,23.65
2018-08-09T05:28:41.685Z,23.65
2018-08-09T05:31:08.130Z,23.69
2018-08-09T05:33:34.477Z,23.72
2018-08-09T05:36:00.866Z,23.76
2018-08-09T05:38:27.243Z,23.84
2018-08-09T05:40:53.587Z,23.82
2018-08-09T05:43:19.987Z,23.83
2018-08-09T05:45:46.391Z,23.86
2018-08-09T05:48:12.710Z,23.83
2018-08-09T05:50:39.150Z,23.96
2018-08-09T05:53:05.516Z,23.87
2018-08-09T05:55:31.868Z,23.98
2018-08-09T05:57:58.217Z,23.92
2018-08-09T06:00:24.613Z,24.03
2018-08-09T06:02:51.173Z,24.05
2018-08-09T06:05:17.590Z,24.02
2018-08-09T06:07:43.942Z,24.10
2018-08-09T06:10:10.331Z,24.11
2018-08-09T06:12:36.724Z,24.13
2018-08-09T06:15:03.058Z,24.17
2018-08-09T06:17:29.434Z,24.17
2018-08-09T06:19:55.762Z,24.23
2018-08-09T06:22:22.183Z,24.25
2018-08-09T06:24:48.571Z,24.31
2018-08-09T06:27:14.900Z,24.30
2018-08-09T06:29:41.301Z,24.26
2018-08-09T06:32:07.775Z,24.27
2018-08-09T06:34:34.272Z,24.29
2018-08-09T06:37:00.606Z,24.31
2018-08-09T06:39:27.005Z,24.33
2018-08-09T06:41:53.372Z,24.36
2018-08-09T06:44:19.874Z,24.35
2018-08-09T06:46:46.220Z,24.50
2018-08-09T06:49:12.628Z,24.42
2018-08-09T06:51:39.141Z,24.61
2018-08-09T06:54:05.502Z,24.54
2018-08-09T06:56:31.926Z,24.59
2018-08-09T06:58:58.326Z,24.63
2018-08-09T07:01:24.684Z,24.60
2018-08-09T07:03:51.091Z,24.61
2018-08-09T07:06:17.437Z,24.71
2018-08-09T07:08:43.864Z,24.69
2018-08-09T07:11:10.413Z,24.73
2018-08-09T07:13:36.809Z,24.75
2018-08-09T07:16:03.669Z,24.74
2018-08-09T07:18:30.063Z,24.83
2018-08-09T07:20:56.480Z,24.73
2018-08-09T07:23:22.847Z,24.80
2018-08-09T07:25:49.227Z,24.94
2018-08-09T07:28:15.616Z,24.90
2018-08-09T07:30:41.990Z,24.89
2018-08-09T07:33:08.401Z,24.90
2018-08-09T07:35:34.754Z,24.93
2018-08-09T07:38:01.161Z,25.02
2018-08-09T07:40:27.522Z,24.95
2018-08-09T07:42:54.016Z,24.91
2018-08-09T07:45:20.406Z,24.98
2018-08-09T07:47:46.896Z,25.02
2018-08-09T07:50:13.419Z,25.09
2018-08-09T07:52:39.822Z,25.16
2018-08-09T07:55:06.191Z,25.08
2018-08-09T07:57:32.626Z,25.16
2018-08-09T07:59:58.998Z,25.32
2018-08-09T08:02:25.378Z,25.21
2018-08-09T08:04:51.960Z,25.27
2018-08-09T08:07:18.356Z,25.29
2018-08-09T08:09:44.918Z,25.23
2018-08-09T08:12:11.402Z,25.33
2018-08-09T08:14:37.765Z,25.29
2018-08-09T08:17:04.111Z,25.29
2018-08-09T08:19:30.506Z,25.20
2018-08-09T08:21:57.027Z,25.20
2018-08-09T08:24:23.523Z,25.30
2018-08-09T08:26:50.057Z,25.46
2018-08-09T08:29:16.458Z,25.16
2018-08-09T08:31:42.828Z,25.28
2018-08-09T08:34:10.111Z,25.19
2018-08-09T08:36:37.357Z,25.25
2018-08-09T08:39:03.861Z,25.37
2018-08-09T08:41:30.364Z,25.30
2018-08-09T08:43:56.832Z,25.09
2018-08-09T08:46:23.287Z,25.32
2018-08-09T08:48:49.725Z,25.05
2018-08-09T08:51:16.150Z,25.24
2018-08-09T08:53:42.495Z,25.17
2018-08-09T08:56:09.029Z,25.09
2018-08-09T08:58:35.462Z,25.12
2018-08-09T09:01:01.869Z,25.17
2018-08-09T09:03:28.225Z,25.06
2018-08-09T09:05:54.599Z,25.04
2018-08-09T09:08:20.987Z,25.05
2018-08-09T09:10:47.522Z,25.08
2018-08-09T09:13:13.849Z,25.13
2018-08-09T09:15:40.225Z,25.05
2018-08-09T09:18:06.664Z,25.21
2018-08-09T09:20:33.049Z,25.17
2018-08-09T09:22:59.482Z,25.20
2018-08-09T09:25:25.852Z,25.27
2018-08-09T09:27:52.285Z,25.15
2018-08-09T09:30:18.644Z,25.14
2018-08-09T09:32:45.078Z,25.04
2018-08-09T09:35:11.548Z,25.14
2018-08-09T09:37:37.979Z,25.29
2018-08-09T09:40:04.371Z,25.17
2018-08-09T09:42:30.719Z,25.15
2018-08-09T09:44:57.137Z,25.23
2018-08-09T09:47:23.522Z,25.14
2018-08-09T09:49:50.174Z,25.17
2018-08-09T09:52:16.526Z,24.98
2018-08-09T09:54:42.932Z,25.25
2018-08-09T09:57:09.296Z,25.07
2018-08-09T09:59:35.720Z,25.25
2018-08-09T10:02:02.106Z,25.12
2018-08-09T10:04:28.499Z,25.24
2018-08-09T10:06:55.070Z,25.06
2018-08-09T10:09:21.430Z,25.08
2018-08-09T10:11:47.805Z,25.22
2018-08-09T10:14:14.212Z,25.13
2018-08-09T10:16:40.548Z,25.33
2018-08-09T10:19:06.976Z,25.24
2018-08-09T10:21:33.434Z,25.22
2018-08-09T10:23:59.778Z,25.34
2018-08-09T10:26:26.201Z,25.33
2018-08-09T10:28:52.547Z,25.40
2018-08-09T10:31:18.961Z,25.43
2018-08-09T10:33:45.393Z,25.38
2018-08-09T10:36:11.815Z,25.42
2018-08-09T10:38:38.246Z,25.40
2018-08-09T10:41:04.610Z,25.40
2018-08-09T10:43:31.019Z,25.46
2018-08-09T10:45:57.454Z,25.38
2018-08-09T10:48:24.197Z,25.45
2018-08-09T10:50:50.646Z,25.39
2018-08-09T10:53:17.042Z,25.32
2018-08-09T10:55:43.574Z,25.40
2018-08-09T10:58:10.300Z,25.39
2018-08-09T11:00:36.815Z,25.40
2018-08-09T11:03:03.305Z,25.39
2018-08-09T11:05:29.696Z,25.43
2018-08-09T11:07:56.332Z,25.38
2018-08-09T11:10:22.910Z,25.39
2018-08-09T11:12:49.671Z,25.36
2018-08-09T11:15:16.049Z,25.49
2018-08-09T11:17:42.413Z,25.60
2018-08-09T11:20:08.853Z,25.28
2018-08-09T11:22:35.484Z,25.45
2018-08-09T11:25:01.981Z,25.46
2018-08-09T11:27:28.376Z,25.47
2018-08-09T11:29:54.855Z,25.50
2018-08-09T11:32:21.890Z,25.23
2018-08-09T11:34:49.103Z,25.62
2018-08-09T11:37:15.886Z,25.39
2018-08-09T11:39:42.400Z,25.33
2018-08-09T11:42:08.890Z,25.56
2018-08-09T11:44:35.466Z,25.54
2018-08-09T11:47:01.911Z,25.61
2018-08-09T11:49:28.490Z,25.60
2018-08-09T11:51:54.870Z,25.64
2018-08-09T11:54:21.235Z,25.53
2018-08-09T11:56:47.689Z,25.62
2018-08-09T11:59:14.128Z,25.53
2018-08-09T12:01:40.700Z,25.63
2018-08-09T12:04:07.069Z,25.49
2018-08-09T12:06:33.501Z,25.43
2018-08-09T12:08:59.856Z,25.48
2018-08-09T12:11:26.252Z,25.34
2018-08-09T12:13:52.667Z,25.42
2018-08-09T12:16:19.131Z,25.35
2018-08-09T12:18:45.536Z,25.43
2018-08-09T12:21:11.958Z,25.45
2018-08-09T12:23:38.359Z,25.24
2018-08-09T12:26:04.748Z,25.29
2018-08-09T12:28:31.101Z,25.28
2018-08-09T12:30:57.506Z,25.45
2018-08-09T12:33:23.956Z,25.32
2018-08-09T12:35:50.375Z,25.49
2018-08-09T12:38:16.810Z,25.45
2018-08-09T12:40:43.638Z,25.46
2018-08-09T12:43:10.140Z,25.36
2018-08-09T12:45:36.584Z,25.48
2018-08-09T12:48:02.985Z,25.34
2018-08-09T12:50:29.337Z,25.42
2018-08-09T12:52:55.694Z,25.45
2018-08-09T12:55:22.067Z,25.58
2018-08-09T12:57:48.416Z,25.48
2018-08-09T13:00:14.833Z,25.47
2018-08-09T13:02:41.456Z,25.53
2018-08-09T13:05:08.637Z,25.46
2018-08-09T13:07:34.973Z,25.62
2018-08-09T13:10:01.441Z,25.44
2018-08-09T13:12:27.791Z,25.37
2018-08-09T13:14:54.264Z,25.46
2018-08-09T13:17:20.631Z,25.49
2018-08-09T13:19:47.034Z,25.51
2018-08-09T13:22:13.431Z,25.33
2018-08-09T13:24:39.858Z,25.39
2018-08-09T13:27:06.219Z,25.46
2018-08-09T13:29:32.697Z,25.42
2018-08-09T13:31:59.043Z,25.36
2018-08-09T13:34:25.425Z,25.42
2018-08-09T13:36:51.817Z,25.44
2018-08-09T13:39:18.265Z,25.38
2018-08-09T13:41:44.642Z,25.51
2018-08-09T13:44:10.994Z,25.48
2018-08-09T13:46:37.397Z,25.35
2018-08-09T13:49:04.067Z,25.39
2018-08-09T13:51:30.494Z,25.46
2018-08-09T13:53:56.856Z,25.40
2018-08-09T13:56:23.243Z,25.34
2018-08-09T13:58:49.621Z,25.48
2018-08-09T14:01:16.008Z,25.58
2018-08-09T14:03:42.488Z,25.58
2018-08-09T14:06:08.888Z,25.53
2018-08-09T14:08:35.705Z,25.57
2018-08-09T14:11:02.122Z,25.61
2018-08-09T14:13:28.472Z,25.57
2018-08-09T14:15:54.895Z,25.57
2018-08-09T14:18:21.252Z,25.54
2018-08-09T14:20:47.759Z,25.53
2018-08-09T14:23:14.203Z,25.51
2018-08-09T14:25:40.573Z,25.50
2018-08-09T14:28:06.980Z,25.57
2018-08-09T14:30:33.370Z,25.67
2018-08-09T14:32:59.786Z,25.68
2018-08-09T14:35:26.168Z,25.54
2018-08-09T14:37:52.585Z,25.50
2018-08-09T14:40:18.942Z,25.59
2018-08-09T14:42:45.314Z,25.59
2018-08-09T14:45:11.681Z,25.57
2018-08-09T14:47:38.095Z,25.45
2018-08-09T14:50:04.506Z,25.54
2018-08-09T14:52:30.874Z,25.48
2018-08-09T14:54:57.302Z,25.47
2018-08-09T14:57:23.666Z,25.46
2018-08-09T14:59:50.077Z,25.46
2018-08-09T15:02:16.576Z,25.51
2018-08-09T15:04:42.950Z,25.47
2018-08-09T15:07:09.466Z,25.51
2018-08-09T15:09:36.433Z,25.52
2018-08-09T15:12:03.159Z,25.43
2018-08-09T15:14:29.525Z,25.40
2018-08-09T15:16:55.880Z,25.37
2018-08-09T15:19:22.213Z,25.39
2018-08-09T15:21:48.689Z,25.44
2018-08-09T15:24:15.111Z,25.46
2018-08-09T15:26:41.729Z,25.34
2018-08-09T15:29:08.075Z,25.46
2018-08-09T15:31:34.489Z,25.37
2018-08-09T15:34:00.857Z,25.34
2018-08-09T15:36:27.250Z,25.38
2018-08-09T15:38:53.636Z,25.32
2018-08-09T15:41:19.983Z,25.27
2018-08-09T15:43:46.348Z,25.27
2018-08-09T15:46:12.774Z,25.12
2018-08-09T15:48:39.208Z,25.27
2018-08-09T15:51:05.540Z,25.16
2018-08-09T15:53:31.927Z,25.18
2018-08-09T15:55:58.333Z,25.22
2018-08-09T15:58:24.859Z,25.21
2018-08-09T16:00:51.245Z,25.23
2018-08-09T16:03:17.678Z,25.15
2018-08-09T16:05:44.172Z,25.15
2018-08-09T16:08:11.211Z,25.06
2018-08-09T16:10:37.602Z,24.92
2018-08-09T16:13:04.013Z,24.95
2018-08-09T16:15:30.411Z,25.03
2018-08-09T16:17:56.817Z,25.06
2018-08-09T16:20:23.167Z,25.07
2018-08-09T16:22:49.702Z,25.00
2018-08-09T16:25:16.414Z,25.01
2018-08-09T16:27:42.829Z,24.98
2018-08-09T16:30:09.254Z,24.98
2018-08-09T16:32:35.623Z,24.99
2018-08-09T16:35:02.002Z,24.92
2018-08-09T16:37:28.507Z,24.89
2018-08-09T16:39:55.126Z,24.92
2018-08-09T16:42:21.515Z,24.90
2018-08-09T16:44:47.840Z,24.91
2018-08-09T16:47:14.206Z,24.90
2018-08-09T16:49:40.534Z,24.88
2018-08-09T16:52:06.897Z,24.86
2018-08-09T16:54:33.317Z,24.77
2018-08-09T16:56:59.703Z,24.82
2018-08-09T16:59:26.198Z,24.84
2018-08-09T17:01:52.577Z,24.77
2018-08-09T17:04:18.945Z,24.75
2018-08-09T17:06:45.372Z,24.75
2018-08-09T17:09:11.739Z,24.73
2018-08-09T17:11:38.160Z,24.66
2018-08-09T17:14:04.515Z,24.72
2018-08-09T17:16:30.894Z,24.73
2018-08-09T17:18:57.445Z,24.64
2018-08-09T17:21:23.843Z,24.69
2018-08-09T17:23:50.254Z,24.73
2018-08-09T17:26:16.662Z,24.70
2018-08-09T17:28:43.003Z,24.69
2018-08-09T17:31:09.417Z,24.66
2018-08-09T17:33:35.763Z,24.66
2018-08-09T17:36:02.124Z,24.61
2018-08-09T17:38:28.579Z,24.56
2018-08-09T17:40:55.048Z,24.63
2018-08-09T17:43:21.469Z,24.58
2018-08-09T17:45:47.842Z,24.51
2018-08-09T17:48:14.177Z,24.61
2018-08-09T17:50:40.595Z,24.58
2018-08-09T17:53:06.976Z,24.56
2018-08-09T17:55:33.308Z,24.56
2018-08-09T17:57:59.753Z,24.46
2018-08-09T18:00:26.085Z,24.51
2018-08-09T18:02:52.476Z,24.51
2018-08-09T18:05:18.848Z,24.54
2018-08-09T18:07:45.167Z,24.56
2018-08-09T18:10:11.496Z,24.51
2018-08-09T18:12:37.966Z,24.49
2018-08-09T18:15:04.320Z,24.49
2018-08-09T18:17:30.733Z,24.43
2018-08-09T18:19:57.061Z,24.48
2018-08-09T18:22:23.462Z,24.43
2018-08-09T18:24:49.780Z,24.41
2018-08-09T18:27:16.116Z,24.43
2018-08-09T18:29:42.486Z,24.44
2018-08-09T18:32:08.884Z,24.34
2018-08-09T18:34:35.246Z,24.40
2018-08-09T18:37:01.567Z,24.40
2018-08-09T18:39:27.921Z,24.34
2018-08-09T18:41:54.343Z,24.39
2018-08-09T18:44:20.756Z,24.31
2018-08-09T18:46:47.109Z,24.29
2018-08-09T18:49:13.423Z,24.27
2018-08-09T18:51:39.765Z,24.18
2018-08-09T18:54:06.201Z,24.24
2018-08-09T18:56:32.737Z,24.16
2018-08-09T18:58:59.150Z,24.06
2018-08-09T19:01:25.545Z,24.15
2018-08-09T19:03:52.033Z,24.01
2018-08-09T19:06:18.572Z,23.95
2018-08-09T19:08:44.948Z,24.00
2018-08-09T19:11:11.310Z,23.94
2018-08-09T19:13:37.715Z,24.01
2018-08-09T19:16:04.065Z,23.91
2018-08-09T19:18:30.526Z,23.96
2018-08-09T19:20:56.904Z,23.77
2018-08-09T19:23:23.302Z,23.86
2018-08-09T19:25:49.699Z,23.84
2018-08-09T19:28:16.091Z,23.75
2018-08-09T19:30:42.598Z,23.82
2018-08-09T19:33:08.984Z,23.82
2018-08-09T19:35:35.375Z,23.70
2018-08-09T19:38:01.732Z,23.74
2018-08-09T19:40:28.059Z,23.72
2018-08-09T19:42:54.476Z,23.70
2018-08-09T19:45:20.926Z,23.61
2018-08-09T19:47:47.294Z,23.68
2018-08-09T19:50:13.686Z,23.59
2018-08-09T19:52:40.152Z,23.58
2018-08-09T19:55:06.742Z,23.64
2018-08-09T19:57:33.312Z,23.69
2018-08-09T19:59:59.735Z,23.57
2018-08-09T20:02:26.049Z,23.54
2018-08-09T20:04:52.447Z,23.60
2018-08-09T20:07:18.804Z,23.53
2018-08-09T20:09:45.219Z,23.51
2018-08-09T20:12:11.591Z,23.50
2018-08-09T20:14:37.979Z,23.56
2018-08-09T20:17:04.322Z,23.50
2018-08-09T20:19:30.671Z,23.53
2018-08-09T20:21:57.093Z,23.50
2018-08-09T20:24:23.430Z,23.52
2018-08-09T20:26:49.810Z,23.51
2018-08-09T20:29:16.148Z,23.47
2018-08-09T20:31:42.567Z,23.50
2018-08-09T20:34:08.956Z,23.46
2018-08-09T20:36:35.344Z,23.43
2018-08-09T20:39:01.702Z,23.45
2018-08-09T20:41:28.052Z,23.44
2018-08-09T20:43:54.750Z,23.44
2018-08-09T20:46:21.083Z,23.45
2018-08-09T20:48:47.454Z,23.40
2018-08-09T20:51:13.853Z,23.42
2018-08-09T20:53:40.257Z,23.40
2018-08-09T20:56:06.659Z,23.39
2018-08-09T20:58:32.994Z,23.38
2018-08-09T21:00:59.339Z,23.38
2018-08-09T21:03:25.688Z,23.43
2018-08-09T21:05:52.092Z,23.31
2018-08-09T21:08:18.687Z,23.29
2018-08-09T21:10:45.018Z,23.34
2018-08-09T21:13:11.383Z,23.34
2018-08-09T21:15:37.880Z,23.28
2018-08-09T21:18:04.057Z,23.26
2018-08-09T21:20:30.530Z,23.32
2018-08-09T21:22:56.900Z,23.31
2018-08-09T21:25:23.387Z,23.25
2018-08-09T21:27:49.710Z,23.27
2018-08-09T21:30:16.057Z,23.22
2018-08-09T21:32:42.378Z,23.23
2018-08-09T21:35:08.733Z,23.30
2018-08-09T21:37:35.068Z,23.29
2018-08-09T21:40:01.396Z,23.20
2018-08-09T21:42:27.771Z,23.23
2018-08-09T21:44:54.160Z,23.23
2018-08-09T21:47:20.511Z,23.26
2018-08-09T21:49:46.965Z,23.21
2018-08-09T21:52:13.472Z,23.16
2018-08-09T21:54:39.826Z,23.21
2018-08-09T21:57:06.167Z,23.21
2018-08-09T21:59:32.545Z,23.23
2018-08-09T22:01:58.915Z,23.22
2018-08-09T22:04:25.255Z,23.17
2018-08-09T22:06:51.668Z,23.20
2018-08-09T22:09:17.998Z,23.18
2018-08-09T22:11:44.385Z,23.12
2018-08-09T22:14:10.713Z,23.20
2018-08-09T22:16:37.125Z,23.14
2018-08-09T22:19:03.519Z,23.15
2018-08-09T22:21:29.939Z,23.11
2018-08-09T22:23:56.274Z,23.14
2018-08-09T22:26:22.607Z,23.10
2018-08-09T22:28:48.965Z,23.09
2018-08-09T22:31:15.336Z,23.09
2018-08-09T22:33:41.720Z,23.13
2018-08-09T22:36:08.111Z,23.03
2018-08-09T22:38:34.483Z,23.06
2018-08-09T22:41:00.878Z,23.11
2018-08-09T22:43:27.197Z,22.99
2018-08-09T22:45:53.523Z,23.03
2018-08-09T22:48:19.990Z,23.03
2018-08-09T22:50:46.353Z,23.05
2018-08-09T22:53:12.754Z,23.02
2018-08-09T22:55:39.121Z,23.03
2018-08-09T22:58:05.521Z,23.00
2018-08-09T23:00:31.886Z,23.00
2018-08-09T23:02:58.427Z,22.98
2018-08-09T23:05:24.812Z,23.00
2018-08-09T23:07:51.277Z,22.93
2018-08-09T23:10:17.606Z,22.99
2018-08-09T23:12:43.951Z,22.96
2018-08-09T23:15:10.399Z,22.96
2018-08-09T23:17:36.821Z,22.96
2018-08-09T23:20:03.242Z,22.96
2018-08-09T23:22:29.579Z,22.95
2018-08-09T23:24:55.978Z,22.95
2018-08-09T23:27:22.467Z,22.91
2018-08-09T23:29:48.818Z,22.94
2018-08-09T23:32:15.183Z,22.94
2018-08-09T23:34:41.523Z,22.91
2018-08-09T23:37:07.870Z,22.93
2018-08-09T23:39:34.217Z,22.92
2018-08-09T23:42:00.568Z,22.95
2018-08-09T23:44:26.963Z,22.94
2018-08-09T23:46:53.355Z,22.91
2018-08-09T23:49:19.700Z,22.91
2018-08-09T23:51:46.059Z,22.90
2018-08-09T23:54:12.387Z,22.91
2018-08-09T23:56:38.783Z,22.93
2018-08-09T23:59:05.117Z,22.90
